Time;durP1;ratioP1;P1;durP2;ratioP2;P2;SDS_P1;SDS_P2;PMS_P1;PMS_P2;Temp;Humidity;BMP_temperature;BMP_pressure;BME280_temperature;BME280_humidity;BME280_pressure;Samples;Min_cycle;Max_cycle;Signal;HPM_P1;HPM_P2
2020/12/07 00:02:04;;;;;;;7.70;4.97;;;10.80;99.90;;;;;;4940466;29;20031;-76
2020/12/07 00:04:53;;;;;;;12.10;5.85;;;10.90;99.90;;;;;;4956850;29;20039;-76
2020/12/07 00:07:19;;;;;;;10.65;5.35;;;10.90;99.90;;;;;;4958128;29;20047;-74
2020/12/07 00:09:48;;;;;;;12.73;5.30;;;10.90;99.90;;;;;;4957566;29;20028;-75
2020/12/07 00:12:14;;;;;;;14.98;7.65;;;10.80;99.90;;;;;;4957112;29;20082;-75
2020/12/07 00:14:40;;;;;;;8.95;5.03;;;10.90;99.90;;;;;;4939299;29;20028;-73
2020/12/07 00:17:08;;;;;;;8.25;5.05;;;10.90;99.90;;;;;;4921755;29;20043;-75
2020/12/07 00:19:34;;;;;;;8.85;5.20;;;10.80;99.90;;;;;;4921656;29;20027;-75
2020/12/07 00:22:00;;;;;;;13.35;5.65;;;10.80;99.90;;;;;;4938533;29;20036;-74
2020/12/07 00:24:29;;;;;;;6.15;5.53;;;10.70;99.90;;;;;;4956432;29;20023;-75
2020/12/07 00:26:55;;;;;;;6.43;5.78;;;10.80;99.90;;;;;;4945566;29;20513;-74
2020/12/07 00:29:22;;;;;;;6.28;5.30;;;10.70;99.90;;;;;;4970547;29;20023;-74
2020/12/07 00:31:50;;;;;;;9.68;5.57;;;10.70;99.90;;;;;;4962142;29;20031;-79
2020/12/07 00:34:18;;;;;;;7.00;4.57;;;10.70;99.90;;;;;;4940644;29;20026;-75
2020/12/07 00:36:44;;;;;;;13.52;5.40;;;10.70;99.90;;;;;;4955008;29;20063;-75
2020/12/07 00:39:10;;;;;;;7.15;5.30;;;10.70;99.90;;;;;;4953487;28;20046;-75
2020/12/07 00:41:36;;;;;;;10.90;5.25;;;10.60;99.90;;;;;;4959275;28;20059;-75
2020/12/07 00:44:05;;;;;;;6.20;5.30;;;10.70;99.90;;;;;;4937533;29;20338;-75
2020/12/07 00:46:34;;;;;;;10.48;6.28;;;10.70;99.90;;;;;;4938009;29;20031;-76
2020/12/07 00:49:00;;;;;;;7.68;6.95;;;10.60;99.90;;;;;;4921307;29;20094;-74
2020/12/07 00:51:26;;;;;;;17.83;5.93;;;10.50;99.90;;;;;;4950473;28;20022;-76
2020/12/07 00:53:51;;;;;;;6.35;5.57;;;10.50;99.90;;;;;;4976459;28;20090;-74
2020/12/07 00:56:17;;;;;;;9.27;6.72;;;10.40;99.90;;;;;;4935756;29;20125;-75
2020/12/07 00:58:43;;;;;;;12.10;7.43;;;10.40;99.90;;;;;;4937847;29;20045;-74
2020/12/07 01:01:09;;;;;;;11.13;7.20;;;10.30;99.90;;;;;;4935119;29;20039;-74
2020/12/07 01:03:35;;;;;;;12.55;7.72;;;10.20;99.90;;;;;;4938633;29;20067;-75
2020/12/07 01:06:00;;;;;;;8.15;7.30;;;10.30;99.90;;;;;;4930099;29;20039;-74
2020/12/07 01:08:26;;;;;;;9.80;7.55;;;10.30;99.90;;;;;;4959815;28;20547;-74
2020/12/07 01:10:56;;;;;;;11.27;8.35;;;10.30;99.90;;;;;;4938860;29;20031;-74
2020/12/07 01:13:22;;;;;;;10.20;9.10;;;10.30;99.90;;;;;;4967379;28;20029;-74
2020/12/07 01:15:50;;;;;;;8.20;7.32;;;10.30;99.90;;;;;;4939419;29;20028;-74
2020/12/07 01:18:16;;;;;;;12.20;7.72;;;10.30;99.90;;;;;;4937220;29;20030;-74
2020/12/07 01:20:42;;;;;;;9.48;7.68;;;10.30;99.90;;;;;;4953180;28;20241;-75
2020/12/07 01:23:08;;;;;;;15.85;7.55;;;10.20;99.90;;;;;;4970961;28;20105;-75
2020/12/07 01:25:34;;;;;;;10.48;7.43;;;10.20;99.90;;;;;;4948901;28;20050;-74
2020/12/07 01:28:00;;;;;;;10.43;8.57;;;10.30;99.90;;;;;;4966995;28;20079;-77
2020/12/07 01:30:26;;;;;;;13.68;7.85;;;10.20;99.90;;;;;;4967127;28;20066;-74
2020/12/07 01:32:52;;;;;;;9.57;8.05;;;10.20;99.90;;;;;;4961327;28;20105;-75
2020/12/07 01:35:18;;;;;;;11.80;8.18;;;10.10;99.90;;;;;;4961602;28;20569;-74
2020/12/07 01:37:44;;;;;;;13.30;8.63;;;10.10;99.90;;;;;;4963847;28;20054;-75
2020/12/07 01:40:10;;;;;;;10.05;8.73;;;10.10;99.90;;;;;;4962182;28;20035;-75
2020/12/07 01:42:36;;;;;;;12.95;9.10;;;10.00;99.90;;;;;;4965905;28;20031;-75
2020/12/07 01:45:02;;;;;;;11.38;8.82;;;10.00;99.90;;;;;;4955912;28;20070;-75
2020/12/07 01:47:29;;;;;;;13.80;8.30;;;9.90;99.90;;;;;;4950094;29;20027;-74
2020/12/07 01:49:55;;;;;;;8.45;7.30;;;9.90;99.90;;;;;;4961176;28;20032;-75
2020/12/07 01:52:24;;;;;;;12.27;7.57;;;9.90;99.90;;;;;;4966784;28;20023;-75
2020/12/07 01:54:51;;;;;;;10.50;8.05;;;9.90;99.90;;;;;;4952096;28;20038;-75
2020/12/07 01:57:17;;;;;;;16.33;8.15;;;9.90;99.90;;;;;;4969262;28;20095;-77
2020/12/07 01:59:43;;;;;;;9.80;8.25;;;9.80;99.90;;;;;;4960376;28;20032;-75
2020/12/07 02:02:08;;;;;;;11.70;8.32;;;9.80;99.90;;;;;;4971368;28;20054;-75
2020/12/07 02:04:35;;;;;;;12.93;8.60;;;9.70;99.90;;;;;;4960901;28;20109;-75
2020/12/07 02:07:01;;;;;;;12.75;8.43;;;9.60;99.90;;;;;;4961511;28;20118;-75
2020/12/07 02:09:30;;;;;;;9.30;8.40;;;9.60;99.90;;;;;;4970659;28;20085;-75
2020/12/07 02:11:56;;;;;;;13.10;8.27;;;9.60;99.90;;;;;;4965500;28;20058;-74
2020/12/07 02:14:22;;;;;;;20.77;9.73;;;9.50;99.90;;;;;;4969947;28;20042;-74
2020/12/07 02:16:49;;;;;;;9.32;8.52;;;9.40;99.90;;;;;;4959892;28;20425;-75
2020/12/07 02:19:15;;;;;;;10.90;8.70;;;9.40;99.90;;;;;;4969225;28;20050;-74
2020/12/07 02:21:41;;;;;;;9.30;7.80;;;9.40;99.90;;;;;;4960042;28;20036;-74
2020/12/07 02:24:07;;;;;;;9.65;7.85;;;9.30;99.90;;;;;;4954319;28;20046;-75
2020/12/07 02:26:33;;;;;;;7.32;6.70;;;9.40;99.90;;;;;;4949719;29;20494;-74
2020/12/07 02:29:02;;;;;;;11.30;7.80;;;9.40;99.90;;;;;;4944038;28;20035;-75
2020/12/07 02:31:28;;;;;;;10.90;7.00;;;9.40;99.90;;;;;;4946712;29;20019;-74
2020/12/07 02:33:54;;;;;;;10.55;7.53;;;9.40;99.90;;;;;;4969375;28;20179;-75
2020/12/07 02:36:20;;;;;;;9.70;6.28;;;9.50;99.90;;;;;;4963350;28;20147;-74
2020/12/07 02:38:46;;;;;;;7.18;5.40;;;9.40;99.90;;;;;;4964303;28;20380;-75
2020/12/07 02:41:11;;;;;;;6.10;5.60;;;9.30;99.90;;;;;;4965113;28;20090;-74
2020/12/07 02:43:38;;;;;;;8.57;5.55;;;9.30;99.90;;;;;;4969866;28;20081;-75
2020/12/07 02:46:06;;;;;;;9.80;5.82;;;9.30;99.90;;;;;;4968138;28;20055;-74
2020/12/07 02:48:32;;;;;;;11.23;6.32;;;9.20;99.90;;;;;;4960349;28;20034;-75
2020/12/07 02:51:00;;;;;;;8.48;5.93;;;9.20;99.90;;;;;;4974033;28;20022;-75
2020/12/07 02:53:35;;;;;;;13.10;6.00;;;9.10;99.90;;;;;;4954985;29;20030;-73
2020/12/07 02:56:01;;;;;;;8.25;7.47;;;9.10;99.90;;;;;;4979421;28;20062;-73
2020/12/07 02:58:26;;;;;;;8.25;6.53;;;8.90;99.90;;;;;;4965998;28;20022;-74
2020/12/07 03:00:53;;;;;;;8.15;5.43;;;8.90;99.90;;;;;;4971308;28;20034;-76
2020/12/07 03:03:19;;;;;;;9.23;5.65;;;9.00;99.90;;;;;;4953140;28;20026;-74
2020/12/07 03:05:48;;;;;;;9.13;6.38;;;8.90;99.90;;;;;;4948948;28;20180;-75
2020/12/07 03:08:14;;;;;;;8.60;4.78;;;8.90;99.90;;;;;;4962739;28;20031;-77
2020/12/07 03:10:40;;;;;;;7.20;5.03;;;8.80;99.90;;;;;;4946501;29;20062;-75
2020/12/07 03:13:17;;;;;;;9.90;4.82;;;8.80;99.90;;;;;;4969431;28;20027;-75
2020/12/07 03:15:48;;;;;;;8.23;4.75;;;8.80;99.90;;;;;;4946407;28;20031;-74
2020/12/07 03:18:20;;;;;;;5.93;4.97;;;8.80;99.90;;;;;;4969479;28;20015;-77
2020/12/07 03:20:46;;;;;;;5.30;3.60;;;8.80;99.90;;;;;;4968549;28;20416;-75
2020/12/07 03:23:12;;;;;;;4.63;3.85;;;8.90;99.90;;;;;;4970985;28;20130;-75
2020/12/07 03:25:38;;;;;;;8.07;4.80;;;8.90;99.90;;;;;;4977829;28;20085;-74
2020/12/07 03:28:04;;;;;;;6.47;3.88;;;8.90;99.90;;;;;;4978849;28;20038;-74
2020/12/07 03:30:43;;;;;;;4.38;3.53;;;9.00;99.90;;;;;;4975023;28;20035;-74
2020/12/07 03:33:12;;;;;;;3.97;3.38;;;9.00;99.90;;;;;;4950640;28;20027;-75
2020/12/07 03:35:38;;;;;;;3.60;3.00;;;8.90;99.90;;;;;;4973494;28;20106;-74
2020/12/07 03:38:04;;;;;;;4.97;3.60;;;8.90;99.90;;;;;;4952177;28;20216;-74
2020/12/07 03:40:34;;;;;;;8.82;4.07;;;8.90;99.90;;;;;;4948586;29;20045;-74
2020/12/07 03:43:01;;;;;;;11.52;6.93;;;8.90;99.90;;;;;;4952779;28;20070;-74
2020/12/07 03:45:27;;;;;;;5.15;4.07;;;8.80;99.90;;;;;;4942899;28;20027;-74
2020/12/07 03:47:54;;;;;;;6.32;3.70;;;8.70;99.90;;;;;;4948358;29;20055;-73
2020/12/07 03:50:20;;;;;;;3.53;3.15;;;8.70;99.90;;;;;;4967360;28;20039;-74
2020/12/07 03:52:46;;;;;;;10.98;2.90;;;8.70;99.90;;;;;;4959683;28;20101;-74
2020/12/07 03:55:14;;;;;;;3.95;2.78;;;8.60;99.90;;;;;;4948917;28;20474;-74
2020/12/07 03:57:43;;;;;;;2.88;2.40;;;8.50;99.90;;;;;;4945626;29;20019;-74
2020/12/07 04:00:10;;;;;;;5.53;3.00;;;8.40;99.90;;;;;;4965719;28;20105;-73
2020/12/07 04:02:39;;;;;;;5.18;2.50;;;8.30;99.90;;;;;;4946831;28;20049;-74
2020/12/07 04:05:21;;;;;;;2.40;2.20;;;8.20;99.90;;;;;;4967028;28;20023;-74
2020/12/07 04:07:50;;;;;;;2.80;1.92;;;8.20;99.90;;;;;;4961132;28;20050;-74
2020/12/07 04:10:16;;;;;;;3.47;2.58;;;8.20;99.90;;;;;;4966846;28;20074;-74
2020/12/07 04:12:47;;;;;;;4.32;2.65;;;8.20;99.90;;;;;;4965698;28;20019;-74
2020/12/07 04:15:24;;;;;;;2.53;2.25;;;8.30;99.90;;;;;;4947607;28;20118;-73
2020/12/07 04:17:53;;;;;;;2.22;1.77;;;8.30;99.90;;;;;;4963333;28;20032;-74
2020/12/07 04:20:19;;;;;;;4.57;2.58;;;8.30;99.90;;;;;;4966337;28;20483;-74
2020/12/07 04:22:45;;;;;;;5.55;2.03;;;8.30;99.90;;;;;;4962167;28;20042;-74
2020/12/07 04:25:21;;;;;;;4.10;1.83;;;8.30;99.90;;;;;;4964868;28;20027;-74
2020/12/07 04:27:50;;;;;;;5.18;4.15;;;8.30;99.90;;;;;;4962081;28;20032;-74
2020/12/07 04:30:18;;;;;;;2.30;1.90;;;8.30;99.90;;;;;;4972945;28;20469;-74
2020/12/07 04:32:44;;;;;;;3.13;1.75;;;8.30;99.90;;;;;;4942944;29;20087;-74
2020/12/07 04:35:10;;;;;;;9.05;1.88;;;8.30;99.90;;;;;;4963197;28;20016;-74
2020/12/07 04:37:36;;;;;;;3.47;2.33;;;8.20;99.90;;;;;;4939435;28;20121;-74
2020/12/07 04:40:03;;;;;;;4.20;1.67;;;8.20;99.90;;;;;;4947180;28;20051;-73
2020/12/07 04:42:44;;;;;;;2.05;1.77;;;8.20;99.90;;;;;;4961023;28;20030;-74
2020/12/07 04:45:24;;;;;;;2.70;2.35;;;8.20;99.90;;;;;;4958025;28;20027;-75
2020/12/07 04:48:09;;;;;;;4.53;1.55;;;8.20;99.90;;;;;;4946289;29;20070;-74
2020/12/07 04:50:43;;;;;;;2.47;2.30;;;8.20;99.90;;;;;;4949843;28;20477;-73
2020/12/07 04:53:21;;;;;;;2.45;1.85;;;8.30;99.90;;;;;;4951925;28;20038;-74
2020/12/07 04:55:48;;;;;;;2.53;2.15;;;8.30;99.90;;;;;;4967846;28;20037;-74
2020/12/07 04:58:15;;;;;;;32.78;5.05;;;8.30;99.90;;;;;;4949232;28;20047;-76
2020/12/07 05:00:41;;;;;;;1.55;1.45;;;8.40;99.90;;;;;;4965246;28;20378;-74
2020/12/07 05:03:11;;;;;;;1.95;1.40;;;8.30;99.90;;;;;;4957154;28;20027;-74
2020/12/07 05:05:37;;;;;;;2.60;1.95;;;8.30;99.90;;;;;;4969907;28;21409;-74
2020/12/07 05:08:03;;;;;;;2.58;2.20;;;8.30;99.90;;;;;;4947608;28;20076;-73
2020/12/07 05:10:37;;;;;;;5.72;1.95;;;8.20;99.90;;;;;;4949760;28;20053;-73
2020/12/07 05:13:31;;;;;;;1.83;1.58;;;8.30;99.90;;;;;;4965267;28;20104;-74
2020/12/07 05:16:01;;;;;;;4.40;1.83;;;8.30;99.90;;;;;;4968215;28;20097;-74
2020/12/07 05:18:46;;;;;;;2.95;2.03;;;8.40;99.90;;;;;;4949248;29;20498;-73
2020/12/07 05:21:23;;;;;;;3.03;2.17;;;8.40;99.90;;;;;;4969840;28;20030;-74
2020/12/07 05:24:01;;;;;;;2.35;1.40;;;8.40;99.90;;;;;;4944436;29;20474;-74
2020/12/07 05:26:29;;;;;;;3.28;2.42;;;8.40;99.90;;;;;;4942123;28;20022;-74
2020/12/07 05:29:32;;;;;;;4.25;3.22;;;8.50;99.90;;;;;;4968352;28;20037;-74
2020/12/07 05:31:52;;;;;;;5.88;2.78;;;8.50;99.90;;;;;;4963969;28;20129;-74
2020/12/07 05:34:25;;;;;;;3.72;2.78;;;8.60;99.90;;;;;;4945527;28;20050;-73
2020/12/07 05:37:12;;;;;;;3.50;2.13;;;8.70;99.90;;;;;;4967332;28;20073;-74
2020/12/07 05:39:38;;;;;;;2.63;2.20;;;8.80;99.90;;;;;;4961266;28;20506;-74
2020/12/07 05:42:17;;;;;;;2.30;2.03;;;8.80;99.90;;;;;;4954830;28;20024;-74
2020/12/07 05:45:10;;;;;;;;;;;;;;;;;;;;;
2020/12/07 05:47:40;;;;;;;1.60;1.48;;;8.80;99.90;;;;;;4962365;28;20114;-74
2020/12/07 05:50:11;;;;;;;2.00;1.52;;;8.80;99.90;;;;;;4962646;28;20538;-74
2020/12/07 05:53:07;;;;;;;3.47;1.60;;;8.80;99.90;;;;;;4945539;29;20463;-74
2020/12/07 05:55:34;;;;;;;2.75;1.40;;;8.90;99.90;;;;;;4942927;28;20035;-74
2020/12/07 05:58:09;;;;;;;5.07;1.50;;;8.90;99.90;;;;;;4947415;28;20054;-74
2020/12/07 06:00:39;;;;;;;2.28;1.77;;;8.90;99.90;;;;;;4959770;28;20019;-74
2020/12/07 06:03:06;;;;;;;4.25;1.85;;;9.00;99.90;;;;;;4937820;28;20031;-73
2020/12/07 06:05:32;;;;;;;3.55;2.50;;;9.00;99.90;;;;;;4940466;28;20512;-74
2020/12/07 06:08:20;;;;;;;2.92;2.42;;;9.00;99.90;;;;;;4963684;28;20499;-74
2020/12/07 06:10:50;;;;;;;3.53;2.10;;;9.00;99.90;;;;;;4966051;28;20431;-74
2020/12/07 06:13:20;;;;;;;8.43;1.80;;;9.10;99.90;;;;;;4964825;28;20028;-74
2020/12/07 06:15:50;;;;;;;2.45;2.13;;;9.20;99.90;;;;;;4966946;28;20054;-74
2020/12/07 06:18:32;;;;;;;3.25;1.33;;;9.20;99.90;;;;;;4950740;28;20401;-74
2020/12/07 06:21:05;;;;;;;;;;;9.20;99.90;;;;;;4972163;28;20031;-74
2020/12/07 06:23:35;;;;;;;;;;;9.30;99.90;;;;;;4954607;28;19910;-74
2020/12/07 06:26:03;;;;;;;3.97;1.15;;;9.30;99.90;;;;;;4946686;29;20295;-74
2020/12/07 06:28:34;;;;;;;2.97;1.20;;;9.30;99.90;;;;;;4934598;28;20042;-74
2020/12/07 06:31:08;;;;;;;4.32;1.92;;;9.20;99.90;;;;;;4966530;28;20038;-74
2020/12/07 06:33:39;;;;;;;4.20;1.52;;;9.20;99.90;;;;;;4937501;28;20027;-74
2020/12/07 06:36:05;;;;;;;3.83;2.42;;;9.30;99.90;;;;;;4949451;28;20027;-74
2020/12/07 06:38:43;;;;;;;3.47;1.67;;;9.20;99.90;;;;;;4958975;28;20019;-74
2020/12/07 06:41:10;;;;;;;6.22;1.60;;;9.10;99.90;;;;;;4962369;28;20037;-73
2020/12/07 06:43:41;;;;;;;1.25;1.05;;;9.10;99.90;;;;;;4970899;28;20420;-74
2020/12/07 06:46:06;;;;;;;4.35;2.22;;;9.10;99.90;;;;;;4963107;28;20070;-74
2020/12/07 06:48:36;;;;;;;5.20;1.60;;;9.10;99.90;;;;;;4966648;28;20027;-73
2020/12/07 06:51:30;;;;;;;4.45;1.88;;;9.10;99.90;;;;;;4967068;28;20564;-73
2020/12/07 06:53:57;;;;;;;5.40;2.28;;;9.10;99.90;;;;;;4973332;28;20034;-73
2020/12/07 06:56:23;;;;;;;4.50;2.22;;;9.20;99.90;;;;;;4970608;28;20562;-73
2020/12/07 06:58:49;;;;;;;3.90;1.48;;;9.10;99.90;;;;;;4965162;28;20078;-75
2020/12/07 07:01:22;;;;;;;4.18;2.53;;;9.20;99.90;;;;;;4967853;28;20059;-74
2020/12/07 07:03:52;;;;;;;2.63;1.60;;;9.30;99.90;;;;;;4970042;28;20058;-73
2020/12/07 07:06:23;;;;;;;2.50;1.38;;;9.30;99.90;;;;;;4970857;28;20652;-74
2020/12/07 07:08:50;;;;;;;4.07;1.27;;;9.40;99.90;;;;;;4964247;28;20489;-73
2020/12/07 07:11:17;;;;;;;4.82;2.17;;;9.50;99.90;;;;;;4976331;28;20027;-73
2020/12/07 07:13:53;;;;;;;1.52;1.42;;;9.50;99.90;;;;;;4949024;29;20066;-73
2020/12/07 07:16:21;;;;;;;4.22;2.33;;;9.50;99.90;;;;;;4948621;28;20031;-72
2020/12/07 07:18:52;;;;;;;5.90;2.08;;;9.60;99.90;;;;;;4960714;28;20027;-75
2020/12/07 07:21:21;;;;;;;6.78;1.90;;;9.70;99.90;;;;;;4970196;28;20062;-73
2020/12/07 07:23:48;;;;;;;4.78;2.15;;;9.70;99.90;;;;;;4973490;28;20034;-73
2020/12/07 07:26:33;;;;;;;5.18;2.03;;;9.80;99.90;;;;;;4959931;28;20551;-74
2020/12/07 07:29:06;;;;;;;2.58;2.10;;;9.80;99.90;;;;;;4970314;28;20038;-73
2020/12/07 07:31:33;;;;;;;3.08;2.40;;;9.80;99.90;;;;;;4961719;28;20023;-73
2020/12/07 07:33:58;;;;;;;2.88;1.95;;;9.70;99.90;;;;;;4957334;28;20167;-76
2020/12/07 07:36:25;;;;;;;5.65;2.20;;;9.80;99.90;;;;;;4961539;28;20046;-74
2020/12/07 07:38:58;;;;;;;5.40;1.92;;;9.80;99.90;;;;;;4964594;28;20027;-74
2020/12/07 07:41:25;;;;;;;6.47;2.05;;;9.80;99.90;;;;;;4961215;28;20023;-73
2020/12/07 07:43:52;;;;;;;9.00;1.90;;;9.80;99.90;;;;;;4951877;29;20035;-70
2020/12/07 07:46:22;;;;;;;4.25;2.55;;;9.80;99.90;;;;;;4957407;28;20086;-68
2020/12/07 07:49:03;;;;;;;3.30;1.88;;;9.80;99.90;;;;;;4966881;28;20038;-68
2020/12/07 08:16:19;;;;;;;12.52;4.15;;;10.30;99.90;;;;;;4964760;28;20019;-73
2020/12/07 08:18:45;;;;;;;10.35;3.33;;;10.50;99.90;;;;;;4965193;28;20093;-73
2020/12/07 08:21:23;;;;;;;5.57;2.70;;;10.60;99.90;;;;;;4948824;28;20481;-73
2020/12/07 08:23:53;;;;;;;5.93;2.88;;;10.70;99.90;;;;;;4962146;28;20698;-73
2020/12/07 08:26:20;;;;;;;12.85;2.40;;;10.80;99.90;;;;;;4956381;28;20110;-73
2020/12/07 08:28:49;;;;;;;7.57;4.40;;;10.80;99.90;;;;;;4966984;28;20042;-72
2020/12/07 08:31:18;;;;;;;6.63;3.55;;;10.90;99.90;;;;;;4944516;28;20092;-73
2020/12/07 08:34:08;;;;;;;3.63;1.83;;;10.90;99.90;;;;;;4955442;28;20051;-73
2020/12/07 08:36:34;;;;;;;9.05;2.05;;;10.90;99.90;;;;;;4947287;28;20023;-72
2020/12/07 08:39:00;;;;;;;10.43;1.95;;;11.00;99.90;;;;;;4956719;28;20042;-72
2020/12/07 08:41:34;;;;;;;4.28;1.77;;;11.00;99.90;;;;;;4954114;29;20066;-73
2020/12/07 08:44:03;;;;;;;5.40;1.85;;;11.10;99.90;;;;;;4959156;28;20093;-72
2020/12/07 08:46:31;;;;;;;13.93;2.88;;;11.10;99.90;;;;;;4956702;28;20050;-72
2020/12/07 08:48:57;;;;;;;9.38;4.13;;;11.20;99.90;;;;;;4964204;28;20090;-72
2020/12/07 08:51:29;;;;;;;3.63;2.38;;;11.20;99.90;;;;;;4953693;28;20037;-72
2020/12/07 08:53:55;;;;;;;4.73;2.57;;;11.30;99.90;;;;;;4953737;28;20035;-72
2020/12/07 08:56:24;;;;;;;10.15;3.47;;;11.40;99.90;;;;;;4951490;28;20043;-71
2020/12/07 08:58:50;;;;;;;11.55;2.08;;;11.50;99.90;;;;;;4964005;28;20561;-70
2020/12/07 09:01:21;;;;;;;4.05;1.85;;;11.60;99.90;;;;;;4952278;28;20063;-71
2020/12/07 09:03:47;;;;;;;8.77;2.20;;;11.80;99.90;;;;;;4938833;28;20023;-72
2020/12/07 09:06:15;;;;;;;2.83;1.55;;;11.90;99.90;;;;;;4934928;28;20132;-71
2020/12/07 09:08:41;;;;;;;4.97;1.83;;;12.00;99.90;;;;;;4961534;28;20018;-71
2020/12/07 09:11:10;;;;;;;5.53;1.98;;;12.10;99.90;;;;;;4970237;28;20450;-72
2020/12/07 09:13:36;;;;;;;3.55;1.70;;;12.20;99.90;;;;;;4966729;28;20018;-72
2020/12/07 09:16:02;;;;;;;7.75;2.88;;;12.20;99.90;;;;;;4955880;28;20099;-72
2020/12/07 09:18:29;;;;;;;3.33;2.28;;;12.30;99.90;;;;;;4965346;28;20019;-72
2020/12/07 09:20:55;;;;;;;10.55;2.85;;;12.30;99.90;;;;;;4968893;28;20027;-73
2020/12/07 09:23:21;;;;;;;2.88;1.50;;;12.40;99.90;;;;;;4965898;28;20444;-72
2020/12/07 09:25:48;;;;;;;2.42;1.50;;;12.40;99.90;;;;;;4962953;28;20087;-72
2020/12/07 09:28:13;;;;;;;2.78;1.30;;;12.40;99.90;;;;;;4948476;28;20036;-72
2020/12/07 09:30:42;;;;;;;3.90;1.65;;;12.40;99.90;;;;;;4955267;28;20551;-72
2020/12/07 09:33:08;;;;;;;2.17;1.23;;;12.30;99.90;;;;;;4938063;28;20418;-72
2020/12/07 09:35:34;;;;;;;6.78;2.08;;;12.40;99.90;;;;;;4946659;28;20446;-72
2020/12/07 09:38:00;;;;;;;5.47;2.08;;;12.40;99.90;;;;;;4961172;28;20063;-73
2020/12/07 09:40:29;;;;;;;5.85;2.05;;;12.60;99.90;;;;;;4948630;28;20390;-72
2020/12/07 09:42:55;;;;;;;6.80;1.98;;;12.60;99.90;;;;;;4962159;28;20106;-76
2020/12/07 09:45:21;;;;;;;2.13;1.60;;;12.40;99.90;;;;;;4953510;28;20036;-73
2020/12/07 09:47:47;;;;;;;3.83;1.73;;;12.30;99.90;;;;;;4939753;28;20037;-76
2020/12/07 09:50:19;;;;;;;6.85;2.10;;;12.30;99.90;;;;;;4962240;28;20054;-73
2020/12/07 09:52:45;;;;;;;6.85;2.83;;;12.10;99.90;;;;;;4953580;28;20019;-74
2020/12/07 09:55:11;;;;;;;5.03;1.83;;;12.20;99.90;;;;;;4962296;28;20524;-72
2020/12/07 09:57:36;;;;;;;4.00;2.00;;;12.10;99.90;;;;;;4957288;28;20410;-73
2020/12/07 10:00:04;;;;;;;5.22;1.80;;;12.20;99.90;;;;;;4944221;29;20023;-72
2020/12/07 10:02:30;;;;;;;7.28;3.50;;;12.10;99.90;;;;;;4941537;28;20453;-73
2020/12/07 10:04:57;;;;;;;7.32;4.20;;;12.20;99.90;;;;;;4963882;28;20032;-72
2020/12/07 10:07:28;;;;;;;3.72;2.75;;;12.30;99.90;;;;;;4939384;28;20163;-72
2020/12/07 10:09:54;;;;;;;4.88;2.38;;;12.30;99.90;;;;;;4953386;28;20023;-72
2020/12/07 10:12:20;;;;;;;6.72;2.72;;;12.30;99.90;;;;;;4955027;28;20039;-72
2020/12/07 10:14:47;;;;;;;5.43;2.63;;;12.30;99.90;;;;;;4966151;28;20477;-73
2020/12/07 10:17:18;;;;;;;7.43;2.25;;;12.40;99.90;;;;;;4963164;28;20019;-72
2020/12/07 10:19:44;;;;;;;6.22;2.83;;;12.30;99.90;;;;;;4962964;28;20055;-72
2020/12/07 10:22:10;;;;;;;4.45;2.33;;;12.40;99.90;;;;;;4959280;28;20067;-72
2020/12/07 10:24:36;;;;;;;8.25;2.75;;;12.40;99.90;;;;;;4958853;28;20026;-72
2020/12/07 10:27:04;;;;;;;4.93;2.42;;;12.50;99.90;;;;;;4973913;28;20101;-73
2020/12/07 10:29:30;;;;;;;7.63;2.20;;;12.60;99.90;;;;;;4941115;29;20052;-75
2020/12/07 10:32:03;;;;;;;5.65;2.47;;;12.70;99.90;;;;;;4953014;28;20122;-72
2020/12/07 10:34:30;;;;;;;8.65;4.00;;;12.80;99.90;;;;;;4960730;28;20027;-72
2020/12/07 10:36:56;;;;;;;3.42;2.35;;;12.90;99.90;;;;;;4956112;28;20058;-72
2020/12/07 10:39:22;;;;;;;8.95;3.25;;;12.80;99.90;;;;;;4968261;28;20067;-72
2020/12/07 10:41:48;;;;;;;7.25;3.75;;;12.90;99.90;;;;;;4940563;29;20118;-72
2020/12/07 10:44:14;;;;;;;7.68;3.78;;;12.80;99.90;;;;;;4967027;28;20101;-73
2020/12/07 10:46:40;;;;;;;6.85;3.42;;;12.70;99.90;;;;;;4971697;28;20415;-73
2020/12/07 10:49:06;;;;;;;5.68;3.42;;;12.70;99.90;;;;;;4967723;28;20019;-69
2020/12/07 10:51:33;;;;;;;5.07;2.13;;;12.80;99.90;;;;;;4953704;29;20107;-69
2020/12/07 10:54:00;;;;;;;6.43;2.80;;;12.90;99.90;;;;;;4945891;29;20027;-70
2020/12/07 10:56:26;;;;;;;4.80;1.98;;;12.90;99.90;;;;;;4956063;29;20041;-73
2020/12/07 10:58:52;;;;;;;3.08;1.73;;;12.80;99.90;;;;;;4962352;28;20030;-70
2020/12/07 11:01:19;;;;;;;2.25;1.70;;;12.80;99.90;;;;;;4957410;28;20034;-74
2020/12/07 11:03:47;;;;;;;6.22;2.05;;;12.80;99.90;;;;;;4939565;29;20061;-73
2020/12/07 11:06:19;;;;;;;8.25;2.25;;;12.90;99.90;;;;;;4963522;28;20023;-74
2020/12/07 11:09:07;;;;;;;6.63;2.05;;;12.80;99.90;;;;;;4963714;28;20037;-73
2020/12/07 11:11:34;;;;;;;3.70;2.28;;;12.80;99.90;;;;;;4948631;28;20421;-72
2020/12/07 11:14:00;;;;;;;3.65;1.98;;;12.70;99.90;;;;;;4948884;28;20077;-72
2020/12/07 11:16:26;;;;;;;7.55;1.80;;;12.50;99.90;;;;;;4965881;28;20099;-73
2020/12/07 11:18:52;;;;;;;7.55;1.88;;;12.40;99.90;;;;;;4965356;28;20026;-72
2020/12/07 11:21:18;;;;;;;8.55;1.83;;;12.30;99.90;;;;;;4950623;28;20027;-72
2020/12/07 11:23:48;;;;;;;4.35;1.60;;;12.10;99.90;;;;;;4946877;28;20058;-72
2020/12/07 11:26:19;;;;;;;8.27;3.45;;;12.00;99.90;;;;;;4959420;28;20272;-72
2020/12/07 11:28:46;;;;;;;31.92;6.22;;;11.80;99.90;;;;;;4966787;28;20030;-73
2020/12/07 11:31:14;;;;;;;36.08;6.97;;;11.30;99.90;;;;;;4959952;28;20054;-73
2020/12/07 11:33:40;;;;;;;38.90;6.25;;;10.50;99.90;;;;;;4938719;29;20031;-73
2020/12/07 11:36:06;;;;;;;30.08;5.45;;;10.20;99.90;;;;;;4964884;28;20510;-74
2020/12/07 11:38:36;;;;;;;30.33;6.25;;;10.10;99.90;;;;;;4942836;28;20023;-73
2020/12/07 11:46:29;;;;;;;26.17;6.28;;;10.40;99.90;;;;;;4965385;28;20031;-74
2020/12/07 11:48:55;;;;;;;18.40;5.32;;;10.50;99.90;;;;;;4964242;28;20035;-74
2020/12/07 11:51:26;;;;;;;20.67;6.35;;;10.90;99.90;;;;;;4965755;28;20046;-74
2020/12/07 11:53:54;;;;;;;28.70;5.57;;;11.00;99.90;;;;;;4958315;28;20385;-73
2020/12/07 11:56:34;;;;;;;22.45;4.75;;;11.20;99.90;;;;;;4963620;28;20023;-73
2020/12/07 11:59:00;;;;;;;19.98;6.15;;;11.30;99.90;;;;;;4955134;29;20027;-74
2020/12/07 12:01:29;;;;;;;19.10;5.47;;;11.30;99.90;;;;;;4961170;28;20167;-73
2020/12/07 12:03:55;;;;;;;21.13;7.35;;;11.30;99.90;;;;;;4965277;28;20112;-73
2020/12/07 12:06:38;;;;;;;24.25;5.85;;;11.40;99.90;;;;;;4968481;28;20046;-73
2020/12/07 12:09:11;;;;;;;16.33;4.75;;;11.30;99.90;;;;;;4946942;28;20031;-73
2020/12/07 12:11:51;;;;;;;20.27;7.40;;;11.30;99.90;;;;;;4969460;28;20031;-72
2020/12/07 12:14:17;;;;;;;15.10;5.00;;;11.20;99.90;;;;;;4964985;28;20027;-76
2020/12/07 12:16:42;;;;;;;14.95;5.25;;;11.20;99.90;;;;;;4969705;28;20043;-73
2020/12/07 12:19:10;;;;;;;18.00;4.90;;;11.20;99.90;;;;;;4963601;28;20453;-74
2020/12/07 12:21:37;;;;;;;24.05;11.25;;;11.00;99.90;;;;;;4963847;28;20034;-74
2020/12/07 12:24:05;;;;;;;21.63;11.23;;;11.10;99.90;;;;;;4948643;28;20415;-73
2020/12/07 12:26:33;;;;;;;8.13;2.15;;;11.10;99.90;;;;;;4955764;29;20019;-74
2020/12/07 12:29:00;;;;;;;15.82;4.47;;;11.10;99.90;;;;;;4960354;28;20031;-74
2020/12/07 12:31:26;;;;;;;9.30;3.30;;;11.10;99.90;;;;;;4966431;28;20019;-74
2020/12/07 12:33:53;;;;;;;12.77;2.92;;;11.20;99.90;;;;;;4959010;28;20093;-74
2020/12/07 12:36:21;;;;;;;6.18;2.60;;;11.40;99.90;;;;;;4962669;28;20022;-74
2020/12/07 12:39:05;;;;;;;14.45;2.00;;;11.60;99.90;;;;;;4936107;29;20031;-74
2020/12/07 12:41:34;;;;;;;8.10;3.47;;;11.80;99.90;;;;;;4955087;28;20054;-72
2020/12/07 12:44:09;;;;;;;10.70;3.33;;;11.80;99.90;;;;;;4961393;28;20110;-73
2020/12/07 12:46:45;;;;;;;6.47;2.38;;;11.90;99.90;;;;;;4964560;28;20030;-73
2020/12/07 12:49:23;;;;;;;10.98;4.05;;;12.00;99.90;;;;;;4963007;28;20042;-73
2020/12/07 12:51:49;;;;;;;5.32;2.20;;;12.10;99.90;;;;;;4964809;28;20545;-73
2020/12/07 12:54:16;;;;;;;8.80;2.20;;;12.20;99.90;;;;;;4951271;28;20024;-73
2020/12/07 12:56:45;;;;;;;17.85;2.72;;;12.30;99.90;;;;;;4955841;28;20023;-73
2020/12/07 12:59:10;;;;;;;4.85;2.55;;;12.40;99.90;;;;;;4970376;28;20473;-73
2020/12/07 13:01:37;;;;;;;6.25;2.55;;;12.50;99.90;;;;;;4961426;28;20093;-73
2020/12/07 13:04:06;;;;;;;12.95;4.00;;;12.40;99.90;;;;;;4970278;28;20473;-73
2020/12/07 13:06:36;;;;;;;10.77;4.25;;;12.30;99.90;;;;;;4953949;29;20039;-73
2020/12/07 13:09:03;;;;;;;7.97;2.17;;;12.20;99.90;;;;;;4962557;28;20051;-73
2020/12/07 13:11:31;;;;;;;18.17;6.05;;;12.10;99.90;;;;;;4954033;28;20027;-73
2020/12/07 13:13:56;;;;;;;8.15;3.17;;;12.10;99.90;;;;;;4965506;28;20109;-73
2020/12/07 13:16:25;;;;;;;13.68;4.65;;;12.10;99.90;;;;;;4965881;28;20425;-73
2020/12/07 13:18:53;;;;;;;13.18;3.42;;;12.20;99.90;;;;;;4947627;28;20724;-73
2020/12/07 13:21:31;;;;;;;16.63;3.65;;;12.10;99.90;;;;;;4954873;28;20042;-73
2020/12/07 13:28:51;;;;;;;5.22;2.30;;;11.90;99.90;;;;;;4953367;28;20039;-74
2020/12/07 13:31:17;;;;;;;7.85;2.83;;;12.00;99.90;;;;;;4936477;29;20042;-74
2020/12/07 13:33:42;;;;;;;8.80;3.22;;;12.20;99.90;;;;;;4958200;28;20071;-73
2020/12/07 13:36:11;;;;;;;14.15;2.40;;;12.10;99.90;;;;;;4951246;28;20450;-72